Time;durP1;ratioP1;P1;durP2;ratioP2;P2;SDS_P1;SDS_P2;PMS_P1;PMS_P2;Temp;Humidity;BMP_temperature;BMP_pressure;BME280_temperature;BME280_humidity;BME280_pressure;Samples;Min_cycle;Max_cycle;Signal;HPM_P1;HPM_P2
2023/09/02 00:00:14;;;;;;;2.75;1.58;;;;;;;12.70;75.92;100857.72;5002997;28;20084;-77
2023/09/02 00:02:42;;;;;;;6.07;1.48;;;;;;;12.69;75.97;100854.22;5000329;28;20113;-77
2023/09/02 00:05:09;;;;;;;1.70;1.42;;;;;;;12.70;75.90;100853.34;5001076;28;20047;-77
2023/09/02 00:07:37;;;;;;;2.47;1.02;;;;;;;12.70;76.02;100855.97;4999723;28;20053;-77
2023/09/02 00:10:04;;;;;;;2.47;1.63;;;;;;;12.71;76.01;100876.00;4998974;28;20046;-77
2023/09/02 00:12:31;;;;;;;3.28;1.90;;;;;;;12.71;76.22;100859.44;4997918;28;20049;-77
2023/09/02 00:14:58;;;;;;;2.83;1.60;;;;;;;12.69;76.38;100854.22;5000967;28;20491;-76
2023/09/02 00:17:25;;;;;;;2.38;1.75;;;;;;;12.62;76.20;100839.56;4998314;28;20226;-76
2023/09/02 00:19:53;;;;;;;2.55;1.92;;;;;;;12.71;76.37;100855.03;5006110;28;20053;-77
2023/09/02 00:22:20;;;;;;;2.35;1.48;;;;;;;12.72;76.50;100859.41;4996618;28;20057;-77
2023/09/02 00:24:47;;;;;;;4.38;2.20;;;;;;;12.72;76.48;100851.56;5003591;28;20054;-78
2023/09/02 00:27:14;;;;;;;2.55;2.13;;;;;;;12.73;76.68;100845.41;5004304;28;20060;-77
2023/09/02 00:29:41;;;;;;;1.35;1.25;;;;;;;12.72;76.55;100840.19;5002692;28;20053;-77
2023/09/02 00:32:08;;;;;;;3.78;1.65;;;;;;;12.74;76.77;100833.16;5000328;28;20045;-79
2023/09/02 00:34:35;;;;;;;3.90;1.58;;;;;;;12.74;76.66;100827.91;5007024;28;20414;-79
2023/09/02 00:37:03;;;;;;;4.40;1.33;;;;;;;12.61;76.87;100798.56;4999979;28;20046;-79
2023/09/02 00:39:30;;;;;;;1.75;1.60;;;;;;;12.59;76.84;100800.34;5003722;28;20050;-79
2023/09/02 00:42:00;;;;;;;1.60;1.50;;;;;;;12.75;76.99;100830.50;5001318;28;20057;-80
2023/09/02 00:44:27;;;;;;;2.20;1.40;;;;;;;12.77;76.89;100841.78;5003995;28;20042;-79
2023/09/02 00:46:54;;;;;;;1.33;1.23;;;;;;;12.67;76.84;100823.75;5003207;28;20388;-79
2023/09/02 00:49:22;;;;;;;5.82;1.23;;;;;;;12.77;76.91;100844.41;4998309;28;20054;-80
2023/09/02 00:51:48;;;;;;;2.72;1.73;;;;;;;12.77;76.96;100852.25;4998668;28;20093;-79
2023/09/02 00:54:17;;;;;;;4.47;1.67;;;;;;;12.78;77.20;100847.91;5001466;28;20472;-80
2023/09/02 00:56:44;;;;;;;1.27;1.17;;;;;;;12.79;77.22;100847.84;5005831;28;20480;-80
2023/09/02 00:59:12;;;;;;;3.28;1.33;;;;;;;12.79;76.95;100847.84;5000386;28;20050;-79
2023/09/02 01:01:43;;;;;;;3.47;2.08;;;;;;;12.80;77.06;100846.09;4998680;28;20176;-80
2023/09/02 01:04:10;;;;;;;1.75;1.65;;;;;;;12.81;77.14;100845.19;5007334;28;20487;-79
2023/09/02 01:06:38;;;;;;;1.73;1.27;;;;;;;12.81;77.39;100845.19;5001101;28;20061;-79
2023/09/02 01:09:05;;;;;;;4.85;2.10;;;;;;;12.82;77.15;100845.16;5001560;28;20051;-79
2023/09/02 01:11:34;;;;;;;1.90;1.48;;;;;;;12.70;76.98;100819.28;5002173;28;20077;-79
2023/09/02 01:14:01;;;;;;;2.83;2.17;;;;;;;12.81;77.07;100843.44;5001822;28;20048;-79
2023/09/02 01:16:28;;;;;;;4.38;1.92;;;;;;;12.82;77.13;100847.75;5004315;28;20050;-79
2023/09/02 01:18:56;;;;;;;2.15;1.42;;;;;;;12.78;77.06;100840.03;5000941;28;20050;-79
2023/09/02 01:21:50;;;;;;;4.85;1.83;;;;;;;12.83;77.09;100846.88;4997941;28;20522;-80
2023/09/02 01:24:45;;;;;;;6.30;2.20;;;;;;;12.83;77.06;100843.38;5004370;28;20553;-79
2023/09/02 01:27:21;;;;;;;3.40;2.03;;;;;;;12.65;77.04;100817.66;4997491;28;20060;-79
2023/09/02 01:29:56;;;;;;;5.15;2.25;;;;;;;12.82;77.07;100853.00;4999514;28;20423;-80
2023/09/02 01:32:27;;;;;;;6.60;2.50;;;;;;;12.83;77.07;100859.09;5004222;28;20443;-78
2023/09/02 01:34:55;;;;;;;2.80;1.60;;;;;;;12.84;76.91;100863.47;5001690;28;20100;-78
2023/09/02 01:37:25;;;;;;;2.80;2.42;;;;;;;12.70;77.11;100832.38;5004655;28;20046;-78
2023/09/02 01:39:56;;;;;;;4.35;2.70;;;;;;;12.83;76.93;100854.75;5002030;28;20048;-78
2023/09/02 01:42:25;;;;;;;2.58;2.33;;;;;;;12.83;77.05;100854.75;5005388;28;20046;-80
2023/09/02 01:44:52;;;;;;;4.38;2.13;;;;;;;12.82;77.22;100850.38;4995953;28;20097;-79
2023/09/02 01:47:20;;;;;;;4.45;2.85;;;;;;;12.85;77.13;100851.22;5004015;28;20077;-80
2023/09/02 01:49:47;;;;;;;7.95;2.90;;;;;;;12.83;77.19;100843.38;5003235;28;20045;-80
2023/09/02 01:52:16;;;;;;;2.50;2.28;;;;;;;12.85;77.22;100841.59;5001634;28;20045;-79
2023/09/02 01:54:44;;;;;;;6.07;2.85;;;;;;;12.84;77.06;100839.88;5001654;28;20046;-80
2023/09/02 01:57:11;;;;;;;5.25;3.20;;;;;;;12.86;77.25;100839.81;5000358;28;20486;-80
2023/09/02 01:59:40;;;;;;;6.53;3.45;;;;;;;12.86;77.25;100842.44;5001345;28;20133;-80
2023/09/02 02:02:07;;;;;;;2.78;2.45;;;;;;;12.83;77.45;100825.91;5002604;28;20713;-80
2023/09/02 02:04:36;;;;;;;4.55;2.90;;;;;;;12.85;77.32;100823.22;5003737;28;20046;-80
2023/09/02 02:07:10;;;;;;;4.45;3.22;;;;;;;12.85;77.33;100825.00;5002491;28;20053;-80
2023/09/02 02:09:42;;;;;;;3.23;2.93;;;;;;;12.85;77.14;100830.25;5001760;28;20042;-80
2023/09/02 02:12:10;;;;;;;5.20;3.03;;;;;;;12.85;76.92;100825.84;5003083;28;20057;-80
2023/09/02 02:14:37;;;;;;;7.25;3.33;;;;;;;12.82;77.10;100821.56;4996108;28;20045;-80
2023/09/02 02:17:06;;;;;;;23.75;4.28;;;;;;;12.84;77.16;100824.16;4997470;28;20967;-80
2023/09/02 02:19:34;;;;;;;32.83;4.80;;;;;;;12.85;77.16;100830.25;5000004;28;20064;-80
2023/09/02 02:22:02;;;;;;;35.72;4.22;;;;;;;12.83;77.14;100828.53;5002361;28;20057;-80
2023/09/02 02:24:29;;;;;;;18.35;3.95;;;;;;;12.78;77.20;100824.31;4995468;28;20053;-80
2023/09/02 02:26:56;;;;;;;17.52;4.53;;;;;;;12.82;77.12;100834.66;4997130;28;20073;-80
2023/09/02 02:29:23;;;;;;;22.77;3.75;;;;;;;12.81;77.10;100835.56;4999759;28;20050;-80
2023/09/02 02:31:50;;;;;;;10.57;3.20;;;;;;;12.81;77.10;100839.97;4995455;28;20671;-80
2023/09/02 02:34:18;;;;;;;4.88;2.85;;;;;;;12.80;77.13;100849.56;5004362;28;20100;-80
2023/09/02 02:36:45;;;;;;;6.25;3.03;;;;;;;12.77;77.28;100844.41;5005526;28;20041;-80
2023/09/02 02:39:12;;;;;;;4.25;3.05;;;;;;;12.80;77.20;100846.94;4999110;28;20048;-80
2023/09/02 02:41:39;;;;;;;21.30;3.15;;;;;;;12.79;77.14;100844.38;5002220;28;20527;-80
2023/09/02 02:44:07;;;;;;;6.28;2.80;;;;;;;12.78;77.32;100846.13;5000163;28;20053;-79
2023/09/02 02:46:33;;;;;;;46.75;4.15;;;;;;;12.78;77.31;100854.00;4994949;28;20119;-78
2023/09/02 02:49:00;;;;;;;30.05;3.85;;;;;;;12.78;77.53;100845.28;5007649;28;20045;-78
2023/09/02 02:51:29;;;;;;;13.27;2.78;;;;;;;12.78;77.45;100846.13;4998074;28;20501;-80
2023/09/02 02:53:55;;;;;;;30.13;2.88;;;;;;;12.78;77.62;100846.13;4999938;28;20038;-78
2023/09/02 02:56:22;;;;;;;18.92;2.80;;;;;;;12.77;77.64;100847.03;4995015;28;20384;-78
2023/09/02 02:58:49;;;;;;;28.45;3.00;;;;;;;12.62;77.77;100817.75;4999170;28;20054;-78
2023/09/02 03:01:17;;;;;;;19.90;2.20;;;;;;;12.79;77.79;100844.38;5003876;28;20049;-78
2023/09/02 03:03:44;;;;;;;44.63;3.35;;;;;;;12.79;78.02;100842.59;4999365;28;20064;-78
2023/09/02 03:06:16;;;;;;;21.58;2.63;;;;;;;12.78;78.06;100846.13;5001261;28;20038;-78
2023/09/02 03:08:45;;;;;;;11.80;2.28;;;;;;;12.80;78.12;100848.69;4991885;28;20050;-78
2023/09/02 03:11:12;;;;;;;5.32;1.77;;;;;;;12.76;78.14;100834.81;5005057;28;20040;-78
2023/09/02 03:13:39;;;;;;;45.53;3.22;;;;;;;12.81;78.22;100840.81;5000173;28;20062;-78
2023/09/02 03:16:06;;;;;;;19.77;2.63;;;;;;;12.75;78.14;100832.22;4998360;28;20498;-78
2023/09/02 03:18:33;;;;;;;17.30;2.80;;;;;;;12.83;78.30;100846.88;4999355;28;20056;-78
2023/09/02 03:21:04;;;;;;;11.00;2.78;;;;;;;12.82;78.38;100841.66;4993181;28;20053;-80
2023/09/02 03:23:31;;;;;;;10.52;2.20;;;;;;;12.83;78.34;100843.38;4994802;28;20492;-77
2023/09/02 03:26:07;;;;;;;10.27;2.70;;;;;;;12.84;78.24;100850.34;5004412;28;20442;-78
2023/09/02 03:28:34;;;;;;;7.80;2.40;;;;;;;12.86;78.35;100855.53;4994031;28;20057;-78
2023/09/02 03:31:05;;;;;;;23.27;3.53;;;;;;;12.85;78.44;100854.69;5001659;28;20062;-77
2023/09/02 03:33:32;;;;;;;29.13;3.20;;;;;;;12.87;78.27;100867.78;4998105;28;20057;-78
2023/09/02 03:35:59;;;;;;;20.25;3.08;;;;;;;12.76;78.49;100855.78;5001078;28;20491;-78
2023/09/02 03:38:27;;;;;;;11.15;2.67;;;;;;;12.89;78.61;100865.94;4997579;28;20475;-77
2023/09/02 03:40:53;;;;;;;6.68;2.80;;;;;;;12.88;78.61;100864.25;4998563;28;20049;-77
2023/09/02 03:43:22;;;;;;;11.35;2.95;;;;;;;12.90;78.58;100871.16;4990942;28;20042;-77
2023/09/02 03:45:49;;;;;;;12.23;2.75;;;;;;;12.91;78.59;100872.03;4996150;28;20050;-77
2023/09/02 03:48:18;;;;;;;21.70;2.80;;;;;;;12.88;78.72;100859.84;5000401;28;20105;-78
2023/09/02 03:51:03;;;;;;;2.97;2.63;;;;;;;12.94;78.78;100861.44;5008068;28;20060;-78
2023/09/02 03:53:31;;;;;;;16.70;3.00;;;;;;;12.93;78.88;100865.00;5001686;28;20046;-79
2023/09/02 03:55:58;;;;;;;16.45;3.00;;;;;;;12.96;78.81;100870.16;4998533;28;20483;-79
2023/09/02 03:58:26;;;;;;;21.33;3.08;;;;;;;12.95;78.98;100861.41;5003746;28;20076;-79
2023/09/02 04:00:53;;;;;;;11.05;2.70;;;;;;;12.88;78.88;100851.97;5001031;28;20046;-79
2023/09/02 04:03:21;;;;;;;16.95;2.88;;;;;;;12.97;78.93;100853.50;5004315;28;20060;-79
2023/09/02 04:05:48;;;;;;;4.13;2.47;;;;;;;12.98;79.13;100852.63;5000417;28;20469;-79
2023/09/02 04:08:17;;;;;;;4.88;2.40;;;;;;;13.01;79.03;100853.38;5005228;28;20042;-79
2023/09/02 04:10:44;;;;;;;13.40;2.92;;;;;;;13.03;79.19;100855.94;5006115;28;20056;-79
2023/09/02 04:13:11;;;;;;;14.30;2.58;;;;;;;13.04;79.32;100853.31;5003619;28;20047;-79
2023/09/02 04:15:39;;;;;;;6.35;2.70;;;;;;;13.06;79.41;100850.63;5001885;28;20411;-79
2023/09/02 04:18:06;;;;;;;4.25;2.38;;;;;;;12.99;79.35;100841.22;5001100;28;20046;-78
2023/09/02 04:20:36;;;;;;;4.03;2.50;;;;;;;13.08;79.39;100847.97;5002710;28;20050;-78
2023/09/02 04:23:03;;;;;;;4.78;2.47;;;;;;;13.03;79.52;100842.84;4997828;28;20419;-79
2023/09/02 04:25:30;;;;;;;4.90;2.50;;;;;;;13.12;79.67;100849.59;4994701;28;20046;-79
2023/09/02 04:27:56;;;;;;;2.40;2.20;;;;;;;13.11;79.95;100853.97;5004855;28;20038;-80
2023/09/02 04:30:24;;;;;;;4.07;2.22;;;;;;;13.14;80.17;100847.78;4999268;28;20129;-80
2023/09/02 04:32:53;;;;;;;3.22;1.58;;;;;;;13.16;80.13;100846.84;4997779;28;20038;-80
2023/09/02 04:35:20;;;;;;;2.42;1.85;;;;;;;13.20;80.23;100852.88;5003285;28;20046;-78
2023/09/02 04:37:46;;;;;;;3.58;1.90;;;;;;;13.21;80.42;100847.59;5001386;28;20694;-80
2023/09/02 04:40:14;;;;;;;1.83;1.20;;;;;;;13.24;80.36;100844.03;4997763;28;20793;-80
2023/09/02 04:42:42;;;;;;;2.05;1.00;;;;;;;13.24;80.70;100829.13;5005720;28;20046;-80
2023/09/02 04:45:10;;;;;;;1.50;0.70;;;;;;;13.31;80.83;100842.09;5000339;28;20046;-80
2023/09/02 04:47:37;;;;;;;2.55;0.60;;;;;;;13.33;80.88;100845.56;5004080;28;20101;-80
2023/09/02 04:50:07;;;;;;;0.80;0.40;;;;;;;13.38;81.03;100851.53;5003904;28;20774;-79
2023/09/02 04:52:35;;;;;;;3.63;0.30;;;;;;;13.41;81.04;100848.81;4995731;28;20141;-80
2023/09/02 04:55:02;;;;;;;1.38;0.35;;;;;;;13.44;81.38;100856.59;5009225;28;20041;-79
2023/09/02 04:57:29;;;;;;;1.05;0.40;;;;;;;13.45;81.49;100858.31;5000825;28;20050;-80
2023/09/02 04:59:56;;;;;;;0.63;0.32;;;;;;;13.51;81.43;100858.13;5003164;28;20042;-79
2023/09/02 05:02:23;;;;;;;0.98;0.40;;;;;;;13.53;81.40;100858.94;4995682;28;20389;-77
2023/09/02 05:04:50;;;;;;;1.95;1.05;;;;;;;13.59;81.78;100871.88;4994433;28;20532;-77
2023/09/02 05:07:18;;;;;;;0.68;0.47;;;;;;;13.63;81.85;100865.66;5000805;28;20487;-78
2023/09/02 05:09:45;;;;;;;0.95;0.40;;;;;;;13.68;81.78;100871.59;4997915;28;20042;-77
2023/09/02 05:12:12;;;;;;;3.17;0.50;;;;;;;13.71;81.92;100874.13;5001463;28;20049;-78
2023/09/02 05:14:40;;;;;;;0.73;0.35;;;;;;;13.77;82.23;100874.88;5005298;28;20506;-79
2023/09/02 05:17:07;;;;;;;2.15;0.40;;;;;;;13.81;82.27;100866.00;5006531;28;22029;-78
2023/09/02 05:19:34;;;;;;;5.22;0.47;;;;;;;13.84;82.33;100872.03;4983405;28;20049;-78
2023/09/02 05:22:01;;;;;;;0.57;0.40;;;;;;;13.90;82.42;100868.34;4986491;28;20096;-78
2023/09/02 05:24:29;;;;;;;2.65;0.40;;;;;;;13.95;82.52;100869.94;5003641;28;20046;-77
2023/09/02 05:26:56;;;;;;;0.45;0.45;;;;;;;14.00;82.29;100877.63;4993787;28;20126;-77
2023/09/02 05:29:23;;;;;;;3.17;0.30;;;;;;;14.04;82.41;100876.66;4998835;28;20050;-78
2023/09/02 05:31:50;;;;;;;0.30;0.20;;;;;;;14.03;82.46;100861.81;4996475;28;20042;-78
2023/09/02 05:34:17;;;;;;;0.30;0.30;;;;;;;14.11;82.18;100875.53;4999714;28;20050;-78
2023/09/02 05:36:44;;;;;;;0.10;0.10;;;;;;;14.15;82.15;100878.97;5002806;28;20769;-79
2023/09/02 05:39:11;;;;;;;0.22;0.20;;;;;;;14.18;82.04;100876.22;4999885;28;20486;-78
2023/09/02 05:41:39;;;;;;;2.20;0.20;;;;;;;14.07;81.81;100858.16;5002370;28;20046;-78
2023/09/02 05:44:07;;;;;;;0.20;0.10;;;;;;;14.25;81.79;100877.75;5003539;28;20417;-79
2023/09/02 05:46:34;;;;;;;1.55;0.10;;;;;;;14.28;81.59;100879.41;4996700;28;20050;-78
2023/09/02 05:49:00;;;;;;;1.75;0.10;;;;;;;14.29;81.31;100887.25;4996218;28;20503;-78
2023/09/02 05:51:29;;;;;;;1.23;0.10;;;;;;;14.32;81.22;100883.69;4996708;28;20045;-79
2023/09/02 05:53:56;;;;;;;0.13;0.10;;;;;;;14.33;81.07;100882.75;5002164;28;20460;-80
2023/09/02 05:56:22;;;;;;;0.10;0.10;;;;;;;14.34;80.90;100881.84;5005137;28;20471;-78
2023/09/02 05:58:51;;;;;;;0.28;0.10;;;;;;;14.36;80.70;100878.25;5001646;28;20050;-79
2023/09/02 06:01:18;;;;;;;2.00;0.13;;;;;;;14.38;80.58;100889.59;5004538;28;20539;-79
2023/09/02 06:03:45;;;;;;;0.30;0.20;;;;;;;14.39;80.80;100886.03;5002301;28;20053;-78
2023/09/02 06:06:12;;;;;;;0.20;0.10;;;;;;;14.41;80.68;100872.84;5000000;28;20038;-78
2023/09/02 06:08:39;;;;;;;0.40;0.10;;;;;;;14.36;80.78;100869.50;5005731;28;20045;-78
2023/09/02 06:11:06;;;;;;;3.45;0.20;;;;;;;14.31;80.57;100856.50;5001901;28;20733;-78
2023/09/02 06:13:34;;;;;;;0.38;0.20;;;;;;;14.47;80.65;100877.06;5000612;28;20399;-81
2023/09/02 06:16:03;;;;;;;0.10;0.10;;;;;;;14.48;80.68;100869.09;4999136;28;20056;-79
2023/09/02 06:18:30;;;;;;;1.13;0.20;;;;;;;14.50;80.55;100875.19;4996154;28;20045;-76
2023/09/02 06:20:57;;;;;;;0.10;0.10;;;;;;;14.52;80.43;100870.78;4995979;28;20049;-76
2023/09/02 06:23:25;;;;;;;0.77;0.20;;;;;;;14.53;80.40;100872.47;4997028;28;20388;-78
2023/09/02 06:25:59;;;;;;;1.95;0.20;;;;;;;14.55;80.33;100870.66;4998789;28;20505;-77
2023/09/02 06:28:26;;;;;;;0.35;0.20;;;;;;;14.56;80.25;100866.25;4995541;28;20046;-77
2023/09/02 06:30:54;;;;;;;0.22;0.10;;;;;;;14.59;80.45;100880.16;4996493;28;20057;-78
2023/09/02 06:33:24;;;;;;;0.20;0.10;;;;;;;14.59;80.47;100868.78;4985160;28;20045;-77
2023/09/02 06:35:51;;;;;;;0.20;0.10;;;;;;;14.64;80.20;100880.00;4997194;28;21483;-78
2023/09/02 06:38:19;;;;;;;0.22;0.10;;;;;;;14.67;79.96;100881.69;5001083;28;20042;-79
2023/09/02 06:40:45;;;;;;;0.20;0.13;;;;;;;14.70;79.95;100879.78;4994365;28;20053;-79
2023/09/02 06:43:12;;;;;;;1.75;0.10;;;;;;;14.73;80.34;100878.84;5003825;28;20046;-78
2023/09/02 06:45:39;;;;;;;0.68;0.10;;;;;;;14.75;80.21;100883.13;5002765;28;20138;-78
2023/09/02 06:48:07;;;;;;;0.30;0.15;;;;;;;14.79;80.31;100883.88;4999660;28;20049;-78
2023/09/02 06:50:35;;;;;;;0.30;0.10;;;;;;;14.81;79.78;100882.06;4995009;28;20050;-78
2023/09/02 06:53:02;;;;;;;0.40;0.20;;;;;;;14.85;79.67;100881.88;4997561;28;20049;-78
2023/09/02 06:55:29;;;;;;;0.95;0.10;;;;;;;14.89;79.65;100893.19;5003409;28;20054;-79
2023/09/02 06:58:06;;;;;;;0.15;0.10;;;;;;;14.94;79.76;100893.91;4994741;28;20132;-80
2023/09/02 07:00:36;;;;;;;1.45;0.20;;;;;;;14.99;80.27;100896.34;5002646;28;20487;-77
2023/09/02 07:03:03;;;;;;;1.63;0.82;;;;;;;14.96;80.27;100881.53;5002539;28;20450;-77
2023/09/02 07:05:29;;;;;;;2.75;0.20;;;;;;;15.07;80.42;100889.91;4995449;28;20509;-77
2023/09/02 07:07:59;;;;;;;1.75;0.20;;;;;;;15.12;80.13;100897.66;4999160;28;20423;-77
2023/09/02 07:10:26;;;;;;;0.52;0.10;;;;;;;15.16;80.21;100901.88;5001978;28;20097;-77
2023/09/02 07:12:53;;;;;;;0.30;0.17;;;;;;;15.12;79.97;100881.84;4998878;28;20094;-77
2023/09/02 07:15:20;;;;;;;0.55;0.17;;;;;;;15.23;79.86;100899.91;5002155;28;20042;-77
2023/09/02 07:17:47;;;;;;;0.50;0.20;;;;;;;15.31;79.80;100905.72;4995624;28;20060;-76
2023/09/02 07:20:14;;;;;;;0.35;0.20;;;;;;;15.36;79.84;100903.78;4991838;28;20116;-76
2023/09/02 07:22:41;;;;;;;0.30;0.20;;;;;;;15.41;79.80;100903.63;5000733;28;20138;-79
2023/09/02 07:25:10;;;;;;;2.75;0.43;;;;;;;15.46;79.67;100907.81;5007395;28;20042;-79
2023/09/02 07:27:37;;;;;;;0.30;0.10;;;;;;;15.53;79.05;100905.81;5007693;28;20046;-78
2023/09/02 07:30:04;;;;;;;0.20;0.10;;;;;;;15.58;78.70;100905.66;4998228;28;20049;-78
2023/09/02 07:32:31;;;;;;;0.93;0.20;;;;;;;15.56;78.86;100891.69;5002985;28;20060;-78
2023/09/02 07:34:58;;;;;;;0.30;0.20;;;;;;;15.70;78.97;100907.84;5002897;28;20046;-78
2023/09/02 07:37:25;;;;;;;1.17;0.20;;;;;;;15.76;78.54;100917.28;5002305;28;20881;-78
2023/09/02 07:39:52;;;;;;;0.38;0.30;;;;;;;15.81;78.39;100916.19;5003729;28;20046;-78
2023/09/02 07:42:20;;;;;;;0.13;0.10;;;;;;;15.87;78.14;100908.06;5001686;28;20042;-78
2023/09/02 07:44:47;;;;;;;0.20;0.17;;;;;;;15.91;78.35;100908.81;5004717;28;20552;-78
2023/09/02 07:47:14;;;;;;;0.73;0.20;;;;;;;15.97;78.29;100913.84;5000724;28;20046;-79
2023/09/02 07:49:41;;;;;;;2.00;0.13;;;;;;;16.03;77.80;100918.03;5003128;28;20049;-78
2023/09/02 07:52:08;;;;;;;1.75;0.10;;;;;;;16.10;77.44;100919.50;5003082;28;20038;-78
2023/09/02 07:54:34;;;;;;;0.50;0.15;;;;;;;16.14;77.23;100924.59;5013137;28;20046;-78
2023/09/02 07:57:01;;;;;;;1.75;0.10;;;;;;;16.20;77.09;100934.03;5010116;28;20057;-78
2023/09/02 07:59:30;;;;;;;2.40;0.17;;;;;;;16.25;77.03;100928.56;5007504;28;20049;-77
2023/09/02 08:01:56;;;;;;;1.00;0.10;;;;;;;16.28;76.79;100931.97;5005257;28;20046;-78
2023/09/02 08:04:23;;;;;;;2.55;0.10;;;;;;;16.31;76.46;100926.56;5003984;28;20056;-78
2023/09/02 08:06:50;;;;;;;0.15;0.13;;;;;;;16.39;76.56;100936.78;4999845;28;20503;-79
2023/09/02 08:09:19;;;;;;;0.30;0.10;;;;;;;16.42;76.03;100928.75;5004805;28;20048;-78
2023/09/02 08:11:46;;;;;;;0.35;0.17;;;;;;;16.47;76.08;100931.22;4996277;28;20046;-79
2023/09/02 08:14:12;;;;;;;0.20;0.10;;;;;;;16.50;76.26;100936.34;5002078;28;20059;-78
2023/09/02 08:16:41;;;;;;;0.43;0.10;;;;;;;16.55;75.79;100937.88;4998806;28;20049;-78
2023/09/02 08:19:08;;;;;;;1.40;0.10;;;;;;;16.46;75.75;100918.97;4999222;28;20046;-78
2023/09/02 08:21:35;;;;;;;2.55;0.15;;;;;;;16.64;75.60;100947.19;5000057;28;20133;-78
2023/09/02 08:24:01;;;;;;;0.10;0.10;;;;;;;16.69;75.47;100939.97;4997668;28;20049;-78
2023/09/02 08:26:28;;;;;;;0.80;0.10;;;;;;;16.73;74.87;100948.59;5002180;28;20057;-78
2023/09/02 08:28:55;;;;;;;0.30;0.10;;;;;;;16.74;75.03;100940.63;5001825;28;20066;-79
2023/09/02 08:31:22;;;;;;;2.08;0.10;;;;;;;16.80;74.82;100943.06;5005738;28;20053;-78
2023/09/02 08:33:50;;;;;;;0.30;0.10;;;;;;;16.84;74.79;100951.69;5003544;28;20046;-83
2023/09/02 08:36:18;;;;;;;0.65;0.20;;;;;;;16.85;74.53;100945.50;5003932;28;20404;-83
2023/09/02 08:38:45;;;;;;;0.20;0.10;;;;;;;16.76;74.30;100928.28;5000975;28;20144;-81
2023/09/02 08:41:21;;;;;;;2.33;0.10;;;;;;;16.93;73.66;100950.44;4999844;28;20053;-81
2023/09/02 08:43:50;;;;;;;0.28;0.10;;;;;;;16.97;73.03;100955.53;5001138;28;20046;-78
2023/09/02 08:46:20;;;;;;;1.15;0.20;;;;;;;17.00;73.02;100958.03;4998868;28;20053;-78
2023/09/02 08:48:49;;;;;;;1.05;0.20;;;;;;;17.03;73.04;100965.84;4996036;28;20046;-80
2023/09/02 08:51:17;;;;;;;0.38;0.10;;;;;;;17.06;73.41;100962.22;4996009;28;20049;-82
2023/09/02 08:53:45;;;;;;;0.40;0.10;;;;;;;17.07;72.38;100961.28;4994204;28;20466;-82
2023/09/02 08:56:13;;;;;;;0.30;0.13;;;;;;;17.11;72.44;100968.16;4998636;28;20065;-79
2023/09/02 08:58:40;;;;;;;2.00;0.10;;;;;;;17.12;72.30;100964.59;5002469;28;20046;-80
2023/09/02 09:01:08;;;;;;;1.10;0.20;;;;;;;17.04;72.02;100951.69;5002714;28;20689;-79
2023/09/02 09:03:35;;;;;;;0.20;0.10;;;;;;;17.15;72.01;100966.22;4999406;28;20384;-79
2023/09/02 09:06:05;;;;;;;0.82;0.20;;;;;;;17.15;72.18;100958.31;4996734;28;20134;-79
2023/09/02 09:08:34;;;;;;;1.85;0.20;;;;;;;17.20;72.49;100969.53;5001649;28;20042;-79
2023/09/02 09:11:01;;;;;;;0.43;0.17;;;;;;;17.20;72.00;100974.81;5000443;28;20050;-79
2023/09/02 09:13:30;;;;;;;0.30;0.10;;;;;;;17.22;72.02;100981.75;4990410;28;20050;-79
2023/09/02 09:15:58;;;;;;;0.20;0.13;;;;;;;17.24;72.39;100987.81;5008395;28;20042;-79
2023/09/02 09:18:26;;;;;;;0.20;0.10;;;;;;;17.26;72.13;100988.59;4998980;28;20120;-83
2023/09/02 09:20:53;;;;;;;1.90;0.17;;;;;;;17.29;71.36;100982.34;5003412;28;20054;-80
2023/09/02 09:23:19;;;;;;;0.57;0.10;;;;;;;17.29;71.38;100977.91;5002515;28;20041;-81
2023/09/02 09:25:52;;;;;;;0.25;0.10;;;;;;;17.33;71.76;100985.69;5001206;28;20064;-81
2023/09/02 09:28:19;;;;;;;0.30;0.10;;;;;;;17.36;71.68;100988.19;5004366;28;20108;-83
2023/09/02 09:30:49;;;;;;;0.20;0.10;;;;;;;17.34;72.04;100979.50;4999473;28;20057;-81
2023/09/02 09:33:19;;;;;;;0.85;0.20;;;;;;;17.38;71.93;100983.72;5007771;28;20479;-82
2023/09/02 09:35:45;;;;;;;0.10;0.00;;;;;;;17.40;72.16;100989.81;5001629;28;20050;-82
2023/09/02 09:38:12;;;;;;;0.10;0.00;;;;;;;17.42;71.92;100990.59;5000564;28;20630;-82
2023/09/02 09:40:39;;;;;;;1.48;0.10;;;;;;;17.27;71.81;100969.19;5000691;28;20069;-83
2023/09/02 09:43:29;;;;;;;0.38;0.20;;;;;;;17.47;71.72;100997.38;5000759;28;20050;-76
2023/09/02 09:45:56;;;;;;;0.00;0.00;;;;;;;17.48;71.58;100998.25;4994794;28;20455;-78
2023/09/02 09:48:24;;;;;;;0.05;0.00;;;;;;;17.51;71.26;101004.25;4997291;28;20126;-78
2023/09/02 09:50:51;;;;;;;0.10;0.00;;;;;;;17.42;70.64;100980.03;4997489;28;20385;-78
2023/09/02 09:53:18;;;;;;;0.85;0.00;;;;;;;17.58;71.28;101011.91;4995318;28;20138;-79
2023/09/02 09:55:46;;;;;;;0.38;0.10;;;;;;;17.59;70.88;101008.31;5002484;28;20050;-79
2023/09/02 09:58:13;;;;;;;0.03;0.00;;;;;;;17.59;71.33;101008.31;4997942;28;20279;-79
2023/09/02 10:00:41;;;;;;;0.08;0.08;;;;;;;17.63;70.63;101013.41;4998827;28;20046;-79
2023/09/02 10:03:12;;;;;;;0.00;0.00;;;;;;;17.56;70.63;101001.44;4996189;28;20048;-79
2023/09/02 10:05:39;;;;;;;0.30;0.10;;;;;;;17.65;70.91;101006.28;5002045;28;20085;-80
2023/09/02 10:08:08;;;;;;;0.03;0.00;;;;;;;17.71;70.64;101013.94;4998365;28;20043;-80
2023/09/02 10:10:42;;;;;;;0.10;0.05;;;;;;;17.72;70.06;101012.16;5000720;28;20115;-77
2023/09/02 10:13:08;;;;;;;0.00;0.00;;;;;;;17.76;70.07;101014.59;4997424;28;20054;-78
2023/09/02 10:15:50;;;;;;;0.25;0.10;;;;;;;17.79;69.78;101021.56;4993254;28;20057;-78
2023/09/02 10:18:23;;;;;;;1.55;0.10;;;;;;;17.80;69.70;101017.13;4990534;28;20061;-79
2023/09/02 10:20:50;;;;;;;1.10;0.10;;;;;;;17.83;69.66;101024.94;5000192;28;20047;-79
2023/09/02 10:23:19;;;;;;;0.20;0.10;;;;;;;17.84;69.74;101026.63;5006152;28;20050;-79
2023/09/02 10:26:01;;;;;;;0.10;0.00;;;;;;;17.83;69.68;101028.41;4997054;28;20415;-80
2023/09/02 10:28:37;;;;;;;0.00;0.00;;;;;;;17.77;69.77;101024.22;5004003;28;20101;-79
2023/09/02 10:31:12;;;;;;;1.40;0.10;;;;;;;17.87;69.11;101037.06;5001792;28;20050;-79
2023/09/02 10:33:46;;;;;;;1.15;0.10;;;;;;;17.88;69.26;101034.38;5001794;28;20056;-79
2023/09/02 10:36:18;;;;;;;0.10;0.10;;;;;;;17.75;69.52;101017.31;4996418;28;20088;-79
2023/09/02 10:38:49;;;;;;;0.30;0.00;;;;;;;17.80;69.71;101022.44;4998811;28;20052;-80
2023/09/02 10:41:18;;;;;;;0.00;0.00;;;;;;;17.93;69.60;101063.22;5005021;28;20045;-79
2023/09/02 10:43:47;;;;;;;0.30;0.00;;;;;;;17.78;69.80;101038.34;4991742;28;20492;-79
2023/09/02 10:46:14;;;;;;;0.10;0.00;;;;;;;17.97;70.21;101064.81;5001207;28;20050;-80
2023/09/02 10:48:46;;;;;;;0.40;0.10;;;;;;;17.84;69.82;101035.41;4996609;28;20054;-79
2023/09/02 10:51:14;;;;;;;0.30;0.10;;;;;;;18.00;70.10;101050.59;4994946;28;20165;-79
2023/09/02 10:54:01;;;;;;;0.05;0.03;;;;;;;18.03;70.31;101056.59;4999123;28;20069;-78
2023/09/02 10:56:30;;;;;;;0.10;0.00;;;;;;;18.04;70.24;101065.38;4993764;28;20089;-78
2023/09/02 10:58:58;;;;;;;0.52;0.10;;;;;;;18.05;70.29;101065.31;5002476;28;20133;-77
2023/09/02 11:01:25;;;;;;;1.65;0.00;;;;;;;18.05;70.72;101062.69;4998750;28;20050;-77
2023/09/02 11:03:55;;;;;;;2.03;0.10;;;;;;;18.08;70.10;101059.91;4995608;28;20066;-80
2023/09/02 11:06:22;;;;;;;1.08;0.10;;;;;;;18.11;70.07;101064.19;5008874;28;20503;-79
2023/09/02 11:08:50;;;;;;;0.88;0.10;;;;;;;18.11;70.21;101062.41;5006595;28;20515;-81
2023/09/02 11:11:18;;;;;;;0.40;0.10;;;;;;;18.09;70.10;101064.25;5002060;28;20038;-81
2023/09/02 11:14:22;;;;;;;1.05;0.10;;;;;;;18.15;70.36;101074.53;5004477;28;20054;-80
2023/09/02 11:17:28;;;;;;;0.10;0.10;;;;;;;18.17;70.11;101077.97;5002612;28;20050;-81
2023/09/02 11:19:58;;;;;;;0.10;0.10;;;;;;;18.16;70.16;101076.28;5001236;28;20053;-80
2023/09/02 11:22:47;;;;;;;2.65;0.40;;;;;;;18.22;70.05;101092.81;5003352;28;20400;-80
2023/09/02 11:25:28;;;;;;;3.00;0.40;;;;;;;18.24;69.84;101090.91;5010213;28;20053;-80
2023/09/02 11:27:55;;;;;;;1.55;0.10;;;;;;;18.25;70.07;101095.31;5001677;28;20486;-81
2023/09/02 11:30:23;;;;;;;2.28;0.15;;;;;;;18.17;70.00;101082.41;5006264;28;20041;-80